sensor_id;sensor_type;location;lat;lon;timestamp;noise_LAeq;noise_LA_min;noise_LA_max;noise_LA01;noise_LA95
72686;Laerm;61365;52.162;4.500;2023-04-03T00:01:44;48.01;36.14;58.38;;
72686;Laerm;61365;52.162;4.500;2023-04-03T00:04:10;47.61;38.09;58.78;;
72686;Laerm;61365;52.162;4.500;2023-04-03T00:06:37;48.18;37.70;58.45;;
72686;Laerm;61365;52.162;4.500;2023-04-03T00:09:03;47.73;37.34;59.38;;
72686;Laerm;61365;52.162;4.500;2023-04-03T00:11:29;48.23;38.01;58.34;;
72686;Laerm;61365;52.162;4.500;2023-04-03T00:13:55;48.08;37.60;58.15;;
72686;Laerm;61365;52.162;4.500;2023-04-03T00:16:21;47.80;38.31;58.33;;
72686;Laerm;61365;52.162;4.500;2023-04-03T00:18:47;48.07;38.32;59.28;;
72686;Laerm;61365;52.162;4.500;2023-04-03T00:21:13;47.59;37.52;58.30;;
72686;Laerm;61365;52.162;4.500;2023-04-03T00:23:40;47.60;36.22;58.39;;
72686;Laerm;61365;52.162;4.500;2023-04-03T00:26:06;47.94;37.88;59.28;;
72686;Laerm;61365;52.162;4.500;2023-04-03T00:28:32;47.82;37.13;58.86;;
72686;Laerm;61365;52.162;4.500;2023-04-03T00:30:58;48.16;36.76;58.89;;
72686;Laerm;61365;52.162;4.500;2023-04-03T00:33:24;47.77;37.55;58.32;;
72686;Laerm;61365;52.162;4.500;2023-04-03T00:35:51;47.94;38.51;58.48;;
72686;Laerm;61365;52.162;4.500;2023-04-03T00:38:18;47.95;38.53;58.26;;
72686;Laerm;61365;52.162;4.500;2023-04-03T00:40:46;48.06;37.37;59.15;;
72686;Laerm;61365;52.162;4.500;2023-04-03T00:43:20;47.85;38.44;62.40;;
72686;Laerm;61365;52.162;4.500;2023-04-03T00:45:50;47.95;36.08;58.44;;
72686;Laerm;61365;52.162;4.500;2023-04-03T00:48:46;47.93;37.17;58.49;;
72686;Laerm;61365;52.162;4.500;2023-04-03T00:51:20;47.82;37.37;59.29;;
72686;Laerm;61365;52.162;4.500;2023-04-03T00:53:54;47.68;36.71;58.63;;
72686;Laerm;61365;52.162;4.500;2023-04-03T00:56:23;47.96;37.92;58.52;;
72686;Laerm;61365;52.162;4.500;2023-04-03T00:58:59;47.71;38.36;57.12;;
72686;Laerm;61365;52.162;4.500;2023-04-03T01:01:28;47.67;37.49;58.80;;
72686;Laerm;61365;52.162;4.500;2023-04-03T01:03:54;47.80;37.97;59.12;;
72686;Laerm;61365;52.162;4.500;2023-04-03T01:06:26;47.95;36.99;57.90;;
72686;Laerm;61365;52.162;4.500;2023-04-03T01:08:54;47.67;37.28;58.90;;
72686;Laerm;61365;52.162;4.500;2023-04-03T01:11:21;47.76;37.59;61.34;;
72686;Laerm;61365;52.162;4.500;2023-04-03T01:13:47;47.44;36.42;58.63;;
72686;Laerm;61365;52.162;4.500;2023-04-03T01:16:14;47.98;38.54;57.89;;
72686;Laerm;61365;52.162;4.500;2023-04-03T01:18:42;48.19;38.35;58.05;;
72686;Laerm;61365;52.162;4.500;2023-04-03T01:23:54;47.66;37.12;58.70;;
72686;Laerm;61365;52.162;4.500;2023-04-03T01:26:22;47.64;38.23;58.72;;
72686;Laerm;61365;52.162;4.500;2023-04-03T01:28:48;48.02;36.24;58.60;;
72686;Laerm;61365;52.162;4.500;2023-04-03T01:31:25;47.93;36.86;59.41;;
72686;Laerm;61365;52.162;4.500;2023-04-03T01:33:54;47.84;38.42;58.97;;
72686;Laerm;61365;52.162;4.500;2023-04-03T01:36:27;47.56;37.64;57.65;;
72686;Laerm;61365;52.162;4.500;2023-04-03T01:38:54;47.46;37.66;58.68;;
72686;Laerm;61365;52.162;4.500;2023-04-03T01:41:21;47.96;36.38;60.38;;
72686;Laerm;61365;52.162;4.500;2023-04-03T01:43:48;47.65;36.43;60.97;;
72686;Laerm;61365;52.162;4.500;2023-04-03T01:46:15;47.61;37.14;58.28;;
72686;Laerm;61365;52.162;4.500;2023-04-03T01:48:42;47.82;37.42;58.38;;
72686;Laerm;61365;52.162;4.500;2023-04-03T01:51:08;47.93;37.54;59.06;;
72686;Laerm;61365;52.162;4.500;2023-04-03T01:53:34;47.93;38.98;58.64;;
72686;Laerm;61365;52.162;4.500;2023-04-03T01:56:01;48.04;38.19;59.52;;
72686;Laerm;61365;52.162;4.500;2023-04-03T01:58:27;48.05;36.70;59.58;;
72686;Laerm;61365;52.162;4.500;2023-04-03T02:00:53;48.01;36.35;59.06;;
72686;Laerm;61365;52.162;4.500;2023-04-03T02:03:20;47.96;38.15;58.49;;
72686;Laerm;61365;52.162;4.500;2023-04-03T02:05:46;47.81;37.51;59.07;;
72686;Laerm;61365;52.162;4.500;2023-04-03T02:08:13;48.23;37.92;59.10;;
72686;Laerm;61365;52.162;4.500;2023-04-03T02:10:39;47.95;37.42;58.75;;
72686;Laerm;61365;52.162;4.500;2023-04-03T02:13:05;47.61;37.77;58.15;;
72686;Laerm;61365;52.162;4.500;2023-04-03T02:15:32;48.03;38.08;59.28;;
72686;Laerm;61365;52.162;4.500;2023-04-03T02:17:58;47.99;37.42;58.64;;
72686;Laerm;61365;52.162;4.500;2023-04-03T02:20:24;47.98;35.63;59.19;;
72686;Laerm;61365;52.162;4.500;2023-04-03T02:22:50;47.83;36.18;58.82;;
72686;Laerm;61365;52.162;4.500;2023-04-03T02:25:16;47.89;38.02;60.68;;
72686;Laerm;61365;52.162;4.500;2023-04-03T02:27:43;47.97;38.05;58.68;;
72686;Laerm;61365;52.162;4.500;2023-04-03T02:30:09;47.73;36.21;60.30;;
72686;Laerm;61365;52.162;4.500;2023-04-03T02:32:36;47.84;37.54;58.56;;
72686;Laerm;61365;52.162;4.500;2023-04-03T02:35:02;48.05;36.91;59.30;;
72686;Laerm;61365;52.162;4.500;2023-04-03T02:37:28;47.93;38.85;58.45;;
72686;Laerm;61365;52.162;4.500;2023-04-03T02:39:55;47.74;37.56;59.08;;
72686;Laerm;61365;52.162;4.500;2023-04-03T02:42:21;48.04;37.82;60.04;;
72686;Laerm;61365;52.162;4.500;2023-04-03T02:44:47;47.50;38.09;59.30;;
72686;Laerm;61365;52.162;4.500;2023-04-03T02:47:14;48.01;37.70;58.45;;
72686;Laerm;61365;52.162;4.500;2023-04-03T02:49:40;47.75;38.52;58.65;;
72686;Laerm;61365;52.162;4.500;2023-04-03T02:52:06;46.91;40.28;60.42;;
72686;Laerm;61365;52.162;4.500;2023-04-03T02:54:32;47.04;39.01;58.63;;
72686;Laerm;61365;52.162;4.500;2023-04-03T02:56:58;47.21;38.45;60.16;;
72686;Laerm;61365;52.162;4.500;2023-04-03T02:59:24;46.95;38.80;59.21;;
72686;Laerm;61365;52.162;4.500;2023-04-03T03:01:50;46.93;39.71;58.87;;
72686;Laerm;61365;52.162;4.500;2023-04-03T03:04:16;47.08;39.26;61.98;;
72686;Laerm;61365;52.162;4.500;2023-04-03T03:06:43;47.12;38.56;59.30;;
72686;Laerm;61365;52.162;4.500;2023-04-03T03:09:09;47.08;40.02;63.03;;
72686;Laerm;61365;52.162;4.500;2023-04-03T03:11:35;47.00;40.08;58.52;;
72686;Laerm;61365;52.162;4.500;2023-04-03T03:14:01;47.15;40.66;59.42;;
72686;Laerm;61365;52.162;4.500;2023-04-03T03:16:27;47.09;39.30;58.90;;
72686;Laerm;61365;52.162;4.500;2023-04-03T03:18:53;46.99;38.67;58.40;;
72686;Laerm;61365;52.162;4.500;2023-04-03T03:21:20;47.04;37.62;59.02;;
72686;Laerm;61365;52.162;4.500;2023-04-03T03:23:46;47.01;39.20;58.85;;
72686;Laerm;61365;52.162;4.500;2023-04-03T03:26:12;47.00;39.92;58.59;;
72686;Laerm;61365;52.162;4.500;2023-04-03T03:28:39;47.90;37.73;60.16;;
72686;Laerm;61365;52.162;4.500;2023-04-03T03:31:05;47.91;36.85;58.74;;
72686;Laerm;61365;52.162;4.500;2023-04-03T03:33:32;48.04;37.23;58.20;;
72686;Laerm;61365;52.162;4.500;2023-04-03T03:35:58;48.27;38.32;58.88;;
72686;Laerm;61365;52.162;4.500;2023-04-03T03:38:24;47.98;37.92;59.01;;
72686;Laerm;61365;52.162;4.500;2023-04-03T03:40:51;47.74;35.75;59.03;;
72686;Laerm;61365;52.162;4.500;2023-04-03T03:43:18;47.54;36.77;58.28;;
72686;Laerm;61365;52.162;4.500;2023-04-03T03:45:44;48.03;35.88;59.05;;
72686;Laerm;61365;52.162;4.500;2023-04-03T03:48:12;48.13;37.46;58.62;;
72686;Laerm;61365;52.162;4.500;2023-04-03T03:50:38;48.01;37.96;58.92;;
72686;Laerm;61365;52.162;4.500;2023-04-03T03:53:04;47.81;37.16;58.30;;
72686;Laerm;61365;52.162;4.500;2023-04-03T03:55:31;47.43;37.19;58.99;;
72686;Laerm;61365;52.162;4.500;2023-04-03T03:57:57;47.83;37.19;58.76;;
72686;Laerm;61365;52.162;4.500;2023-04-03T04:00:23;47.65;37.20;58.99;;
72686;Laerm;61365;52.162;4.500;2023-04-03T04:02:49;47.75;37.64;58.77;;
72686;Laerm;61365;52.162;4.500;2023-04-03T04:05:15;47.99;36.95;61.68;;
72686;Laerm;61365;52.162;4.500;2023-04-03T04:07:41;47.82;37.08;58.49;;
72686;Laerm;61365;52.162;4.500;2023-04-03T04:10:07;47.25;36.72;58.28;;
72686;Laerm;61365;52.162;4.500;2023-04-03T04:12:34;47.66;37.79;57.94;;
72686;Laerm;61365;52.162;4.500;2023-04-03T04:15:02;47.93;37.99;58.93;;
72686;Laerm;61365;52.162;4.500;2023-04-03T04:17:28;48.36;36.92;59.49;;
72686;Laerm;61365;52.162;4.500;2023-04-03T04:19:54;47.89;37.74;59.10;;
72686;Laerm;61365;52.162;4.500;2023-04-03T04:22:20;47.98;36.26;58.74;;
72686;Laerm;61365;52.162;4.500;2023-04-03T04:24:46;48.18;37.96;58.34;;
72686;Laerm;61365;52.162;4.500;2023-04-03T04:27:12;47.84;36.13;58.84;;
72686;Laerm;61365;52.162;4.500;2023-04-03T04:29:38;47.42;34.68;59.17;;
72686;Laerm;61365;52.162;4.500;2023-04-03T04:32:05;47.73;36.36;59.09;;
72686;Laerm;61365;52.162;4.500;2023-04-03T04:34:31;47.99;38.58;59.00;;
72686;Laerm;61365;52.162;4.500;2023-04-03T04:36:57;47.95;37.55;58.65;;
72686;Laerm;61365;52.162;4.500;2023-04-03T04:39:23;48.13;38.13;58.24;;
72686;Laerm;61365;52.162;4.500;2023-04-03T04:41:49;47.86;37.56;58.61;;
72686;Laerm;61365;52.162;4.500;2023-04-03T04:44:15;48.23;38.02;58.27;;
72686;Laerm;61365;52.162;4.500;2023-04-03T04:46:41;47.99;37.54;58.47;;
72686;Laerm;61365;52.162;4.500;2023-04-03T04:49:07;48.04;37.49;58.42;;
72686;Laerm;61365;52.162;4.500;2023-04-03T04:51:34;47.91;37.20;59.73;;
72686;Laerm;61365;52.162;4.500;2023-04-03T04:54:00;48.03;37.34;59.40;;
72686;Laerm;61365;52.162;4.500;2023-04-03T04:56:26;48.16;37.35;58.87;;
72686;Laerm;61365;52.162;4.500;2023-04-03T04:58:52;48.17;36.57;59.26;;
72686;Laerm;61365;52.162;4.500;2023-04-03T05:01:18;47.65;36.60;58.87;;
72686;Laerm;61365;52.162;4.500;2023-04-03T05:03:44;47.98;38.36;59.41;;
72686;Laerm;61365;52.162;4.500;2023-04-03T05:06:10;47.50;37.61;59.56;;
72686;Laerm;61365;52.162;4.500;2023-04-03T05:08:36;47.79;36.66;58.89;;
72686;Laerm;61365;52.162;4.500;2023-04-03T05:11:03;47.92;36.08;58.47;;
72686;Laerm;61365;52.162;4.500;2023-04-03T05:13:29;48.16;36.81;59.86;;
72686;Laerm;61365;52.162;4.500;2023-04-03T05:15:55;47.49;35.83;58.27;;
72686;Laerm;61365;52.162;4.500;2023-04-03T05:18:21;46.80;38.27;58.95;;
72686;Laerm;61365;52.162;4.500;2023-04-03T05:20:50;47.08;38.27;60.74;;
72686;Laerm;61365;52.162;4.500;2023-04-03T05:23:17;46.93;39.37;60.07;;
72686;Laerm;61365;52.162;4.500;2023-04-03T05:25:43;46.96;38.03;58.62;;
72686;Laerm;61365;52.162;4.500;2023-04-03T05:28:11;47.05;39.20;59.09;;
72686;Laerm;61365;52.162;4.500;2023-04-03T05:30:37;47.06;40.02;59.30;;
72686;Laerm;61365;52.162;4.500;2023-04-03T05:33:03;46.95;39.79;58.50;;
72686;Laerm;61365;52.162;4.500;2023-04-03T05:35:29;47.02;38.16;61.70;;
72686;Laerm;61365;52.162;4.500;2023-04-03T05:37:56;46.91;39.34;60.26;;
72686;Laerm;61365;52.162;4.500;2023-04-03T05:40:22;46.99;37.62;59.01;;
72686;Laerm;61365;52.162;4.500;2023-04-03T05:42:48;46.96;39.47;58.69;;
72686;Laerm;61365;52.162;4.500;2023-04-03T05:45:14;47.08;40.02;58.75;;
72686;Laerm;61365;52.162;4.500;2023-04-03T05:47:41;46.95;39.89;59.21;;
72686;Laerm;61365;52.162;4.500;2023-04-03T05:50:08;46.86;38.60;58.81;;
72686;Laerm;61365;52.162;4.500;2023-04-03T05:52:40;46.83;38.06;58.58;;
72686;Laerm;61365;52.162;4.500;2023-04-03T05:55:08;46.88;39.78;59.23;;
72686;Laerm;61365;52.162;4.500;2023-04-03T05:57:34;46.91;39.84;60.06;;
72686;Laerm;61365;52.162;4.500;2023-04-03T06:00:01;46.91;37.50;58.58;;
72686;Laerm;61365;52.162;4.500;2023-04-03T06:02:27;46.80;39.07;59.37;;
72686;Laerm;61365;52.162;4.500;2023-04-03T06:04:53;46.91;37.99;58.72;;
72686;Laerm;61365;52.162;4.500;2023-04-03T06:07:22;46.74;38.49;58.85;;
72686;Laerm;61365;52.162;4.500;2023-04-03T06:09:50;46.74;40.21;59.87;;
72686;Laerm;61365;52.162;4.500;2023-04-03T06:12:17;47.58;37.69;58.25;;
72686;Laerm;61365;52.162;4.500;2023-04-03T06:14:43;47.64;37.48;59.18;;
72686;Laerm;61365;52.162;4.500;2023-04-03T06:17:10;47.57;37.52;59.36;;
72686;Laerm;61365;52.162;4.500;2023-04-03T06:19:36;47.75;37.58;58.32;;
72686;Laerm;61365;52.162;4.500;2023-04-03T06:22:02;47.58;36.21;58.66;;
72686;Laerm;61365;52.162;4.500;2023-04-03T06:24:29;47.47;37.90;59.52;;
72686;Laerm;61365;52.162;4.500;2023-04-03T06:26:56;47.73;36.80;59.25;;
72686;Laerm;61365;52.162;4.500;2023-04-03T06:29:22;47.72;37.89;57.53;;
72686;Laerm;61365;52.162;4.500;2023-04-03T06:31:49;47.55;37.62;61.41;;
72686;Laerm;61365;52.162;4.500;2023-04-03T06:34:16;47.42;38.36;58.13;;
72686;Laerm;61365;52.162;4.500;2023-04-03T06:36:44;47.52;36.25;58.68;;
72686;Laerm;61365;52.162;4.500;2023-04-03T06:39:16;47.73;37.10;58.40;;
72686;Laerm;61365;52.162;4.500;2023-04-03T06:41:44;47.45;37.48;59.01;;
72686;Laerm;61365;52.162;4.500;2023-04-03T06:44:10;47.22;36.91;57.66;;
72686;Laerm;61365;52.162;4.500;2023-04-03T06:46:42;47.40;37.36;58.63;;
72686;Laerm;61365;52.162;4.500;2023-04-03T06:49:09;47.88;37.66;58.46;;
72686;Laerm;61365;52.162;4.500;2023-04-03T06:51:36;47.91;38.02;59.52;;
72686;Laerm;61365;52.162;4.500;2023-04-03T06:54:04;47.49;35.69;59.02;;
72686;Laerm;61365;52.162;4.500;2023-04-03T06:56:30;47.69;38.04;58.34;;
72686;Laerm;61365;52.162;4.500;2023-04-03T06:58:57;47.84;36.85;58.07;;
72686;Laerm;61365;52.162;4.500;2023-04-03T07:01:25;47.84;37.91;58.81;;
72686;Laerm;61365;52.162;4.500;2023-04-03T07:03:54;47.44;36.73;58.33;;
72686;Laerm;61365;52.162;4.500;2023-04-03T07:06:21;47.66;37.77;58.53;;
72686;Laerm;61365;52.162;4.500;2023-04-03T07:08:47;47.75;37.09;58.61;;
72686;Laerm;61365;52.162;4.500;2023-04-03T07:11:15;47.96;38.35;57.54;;
72686;Laerm;61365;52.162;4.500;2023-04-03T07:13:41;47.74;37.52;59.16;;
72686;Laerm;61365;52.162;4.500;2023-04-03T07:16:08;47.94;35.78;59.07;;
72686;Laerm;61365;52.162;4.500;2023-04-03T07:18:35;47.75;36.65;58.55;;
72686;Laerm;61365;52.162;4.500;2023-04-03T07:21:02;47.55;36.32;58.16;;
72686;Laerm;61365;52.162;4.500;2023-04-03T07:23:28;47.81;37.63;58.38;;
72686;Laerm;61365;52.162;4.500;2023-04-03T07:25:54;47.94;37.74;58.60;;
72686;Laerm;61365;52.162;4.500;2023-04-03T07:28:21;47.53;36.95;57.70;;
72686;Laerm;61365;52.162;4.500;2023-04-03T07:31:14;47.83;37.89;58.22;;
72686;Laerm;61365;52.162;4.500;2023-04-03T07:33:39;47.57;36.85;58.21;;
72686;Laerm;61365;52.162;4.500;2023-04-03T07:36:06;47.82;37.38;58.21;;
72686;Laerm;61365;52.162;4.500;2023-04-03T07:38:34;47.67;37.18;57.93;;
72686;Laerm;61365;52.162;4.500;2023-04-03T07:41:01;47.68;36.45;58.12;;
72686;Laerm;61365;52.162;4.500;2023-04-03T07:43:28;47.66;36.88;58.16;;
72686;Laerm;61365;52.162;4.500;2023-04-03T07:45:54;47.53;36.93;59.65;;
72686;Laerm;61365;52.162;4.500;2023-04-03T07:48:22;47.86;37.01;58.26;;
72686;Laerm;61365;52.162;4.500;2023-04-03T07:50:49;47.73;37.37;59.24;;
72686;Laerm;61365;52.162;4.500;2023-04-03T07:53:16;47.71;37.15;58.68;;
72686;Laerm;61365;52.162;4.500;2023-04-03T07:55:43;47.79;37.39;58.87;;
72686;Laerm;61365;52.162;4.500;2023-04-03T07:58:16;47.93;38.16;58.20;;
72686;Laerm;61365;52.162;4.500;2023-04-03T08:00:43;47.37;36.92;57.96;;
72686;Laerm;61365;52.162;4.500;2023-04-03T08:03:10;47.74;37.26;57.95;;
72686;Laerm;61365;52.162;4.500;2023-04-03T08:05:41;47.70;37.71;57.63;;
72686;Laerm;61365;52.162;4.500;2023-04-03T08:08:08;47.70;37.48;58.02;;
72686;Laerm;61365;52.162;4.500;2023-04-03T08:10:35;47.66;36.97;57.68;;
72686;Laerm;61365;52.162;4.500;2023-04-03T08:13:02;47.74;37.10;58.43;;
72686;Laerm;61365;52.162;4.500;2023-04-03T08:15:30;47.87;37.41;60.15;;
72686;Laerm;61365;52.162;4.500;2023-04-03T08:17:57;47.60;36.98;57.81;;
72686;Laerm;61365;52.162;4.500;2023-04-03T08:20:23;47.61;36.93;57.13;;
72686;Laerm;61365;52.162;4.500;2023-04-03T08:22:49;47.52;37.17;58.05;;
72686;Laerm;61365;52.162;4.500;2023-04-03T08:25:15;47.57;36.92;58.64;;
72686;Laerm;61365;52.162;4.500;2023-04-03T08:27:43;47.74;35.82;57.80;;
72686;Laerm;61365;52.162;4.500;2023-04-03T08:30:10;47.50;37.02;57.28;;
72686;Laerm;61365;52.162;4.500;2023-04-03T08:32:37;47.94;36.79;58.47;;
72686;Laerm;61365;52.162;4.500;2023-04-03T08:35:04;47.64;37.19;58.16;;
72686;Laerm;61365;52.162;4.500;2023-04-03T08:37:30;47.66;37.67;58.28;;
72686;Laerm;61365;52.162;4.500;2023-04-03T08:39:56;47.63;37.13;58.31;;
72686;Laerm;61365;52.162;4.500;2023-04-03T08:48:05;46.69;39.31;59.07;;
72686;Laerm;61365;52.162;4.500;2023-04-03T08:50:38;46.70;38.18;58.59;;
72686;Laerm;61365;52.162;4.500;2023-04-03T08:53:06;46.78;39.01;58.64;;
72686;Laerm;61365;52.162;4.500;2023-04-03T08:55:42;46.65;39.49;59.30;;
72686;Laerm;61365;52.162;4.500;2023-04-03T08:58:20;46.55;38.29;57.46;;
72686;Laerm;61365;52.162;4.500;2023-04-03T09:03:33;47.28;37.12;59.44;;
72686;Laerm;61365;52.162;4.500;2023-04-03T09:06:11;47.87;36.55;60.92;;
72686;Laerm;61365;52.162;4.500;2023-04-03T09:08:47;47.29;37.11;57.82;;
72686;Laerm;61365;52.162;4.500;2023-04-03T09:11:36;47.49;37.95;59.03;;
72686;Laerm;61365;52.162;4.500;2023-04-03T09:22:26;47.44;38.33;58.39;;
72686;Laerm;61365;52.162;4.500;2023-04-03T09:24:59;47.81;37.59;58.52;;
72686;Laerm;61365;52.162;4.500;2023-04-03T09:27:27;47.54;38.46;57.87;;
72686;Laerm;61365;52.162;4.500;2023-04-03T09:29:55;47.74;38.15;57.93;;
72686;Laerm;61365;52.162;4.500;2023-04-03T09:32:28;47.59;36.07;58.88;;
72686;Laerm;61365;52.162;4.500;2023-04-03T09:35:16;47.61;37.99;58.15;;
72686;Laerm;61365;52.162;4.500;2023-04-03T09:37:48;47.62;38.03;58.40;;
72686;Laerm;61365;52.162;4.500;2023-04-03T09:40:37;47.62;37.24;59.04;;
72686;Laerm;61365;52.162;4.500;2023-04-03T09:43:29;48.01;36.91;60.92;;
72686;Laerm;61365;52.162;4.500;2023-04-03T09:45:56;47.72;37.83;58.85;;
72686;Laerm;61365;52.162;4.500;2023-04-03T09:48:50;47.57;36.21;61.67;;
72686;Laerm;61365;52.162;4.500;2023-04-03T09:51:17;47.71;36.74;57.39;;
72686;Laerm;61365;52.162;4.500;2023-04-03T09:53:44;47.63;38.87;58.58;;
72686;Laerm;61365;52.162;4.500;2023-04-03T09:58:40;47.70;37.15;58.84;;
72686;Laerm;61365;52.162;4.500;2023-04-03T10:04:13;47.51;38.42;59.07;;
72686;Laerm;61365;52.162;4.500;2023-04-03T10:09:25;47.77;39.04;58.84;;
72686;Laerm;61365;52.162;4.500;2023-04-03T10:15:00;47.43;37.63;58.27;;
72686;Laerm;61365;52.162;4.500;2023-04-03T10:23:05;47.38;36.68;57.82;;
72686;Laerm;61365;52.162;4.500;2023-04-03T10:26:11;47.72;38.21;58.43;;
72686;Laerm;61365;52.162;4.500;2023-04-03T10:28:54;47.46;37.63;59.53;;
72686;Laerm;61365;52.162;4.500;2023-04-03T10:34:24;47.29;36.78;59.19;;
72686;Laerm;61365;52.162;4.500;2023-04-03T10:37:08;47.29;37.08;58.93;;
72686;Laerm;61365;52.162;4.500;2023-04-03T10:39:58;47.51;38.04;58.30;;
72686;Laerm;61365;52.162;4.500;2023-04-03T10:45:37;47.51;36.25;59.82;;
72686;Laerm;61365;52.162;4.500;2023-04-03T10:48:48;47.42;36.86;58.46;;
72686;Laerm;61365;52.162;4.500;2023-04-03T10:54:27;47.48;37.91;57.82;;
72686;Laerm;61365;52.162;4.500;2023-04-03T10:57:01;47.27;38.03;58.40;;
72686;Laerm;61365;52.162;4.500;2023-04-03T11:02:32;47.38;38.88;62.20;;
72686;Laerm;61365;52.162;4.500;2023-04-03T11:07:52;47.04;36.76;59.04;;
72686;Laerm;61365;52.162;4.500;2023-04-03T11:10:26;47.44;37.67;58.30;;
72686;Laerm;61365;52.162;4.500;2023-04-03T11:15:45;47.72;38.67;59.04;;
72686;Laerm;61365;52.162;4.500;2023-04-03T11:18:17;47.41;38.95;59.00;;
72686;Laerm;61365;52.162;4.500;2023-04-03T11:21:09;47.07;37.42;61.64;;
72686;Laerm;61365;52.162;4.500;2023-04-03T11:23:40;47.68;37.32;58.36;;
72686;Laerm;61365;52.162;4.500;2023-04-03T11:26:15;47.40;36.68;58.49;;
72686;Laerm;61365;52.162;4.500;2023-04-03T11:28:42;47.03;36.78;58.05;;
72686;Laerm;61365;52.162;4.500;2023-04-03T11:36:45;47.42;36.91;58.40;;
72686;Laerm;61365;52.162;4.500;2023-04-03T11:41:47;47.40;37.64;59.31;;
72686;Laerm;61365;52.162;4.500;2023-04-03T11:44:35;47.45;37.90;58.40;;
72686;Laerm;61365;52.162;4.500;2023-04-03T11:47:03;47.67;37.23;58.53;;
72686;Laerm;61365;52.162;4.500;2023-04-03T11:50:03;51.75;35.18;62.84;;
72686;Laerm;61365;52.162;4.500;2023-04-03T12:05:53;47.60;37.65;57.80;;
72686;Laerm;61365;52.162;4.500;2023-04-03T12:16:06;47.48;37.31;57.91;;
72686;Laerm;61365;52.162;4.500;2023-04-03T12:29:29;45.84;38.51;58.72;;
72686;Laerm;61365;52.162;4.500;2023-04-03T12:37:51;45.99;37.87;60.65;;
72686;Laerm;61365;52.162;4.500;2023-04-03T12:43:05;45.75;39.09;58.13;;
72686;Laerm;61365;52.162;4.500;2023-04-03T12:46:02;45.76;37.02;59.11;;
72686;Laerm;61365;52.162;4.500;2023-04-03T12:48:31;45.94;38.22;58.60;;
72686;Laerm;61365;52.162;4.500;2023-04-03T12:51:00;45.69;38.29;57.54;;
72686;Laerm;61365;52.162;4.500;2023-04-03T12:53:35;45.75;39.15;57.79;;
72686;Laerm;61365;52.162;4.500;2023-04-03T12:56:24;45.78;38.01;60.89;;
72686;Laerm;61365;52.162;4.500;2023-04-03T12:58:53;45.81;36.72;57.57;;
72686;Laerm;61365;52.162;4.500;2023-04-03T13:01:24;45.86;38.29;60.46;;
72686;Laerm;61365;52.162;4.500;2023-04-03T13:03:55;45.69;37.98;58.35;;
72686;Laerm;61365;52.162;4.500;2023-04-03T13:06:26;45.74;38.94;60.32;;
72686;Laerm;61365;52.162;4.500;2023-04-03T13:08:58;45.75;37.61;57.57;;
72686;Laerm;61365;52.162;4.500;2023-04-03T13:11:30;45.78;38.71;62.94;;
72686;Laerm;61365;52.162;4.500;2023-04-03T13:14:03;45.74;37.76;58.07;;
72686;Laerm;61365;52.162;4.500;2023-04-03T13:16:32;45.77;38.75;58.30;;
72686;Laerm;61365;52.162;4.500;2023-04-03T13:18:59;45.75;37.55;58.30;;
72686;Laerm;61365;52.162;4.500;2023-04-03T13:21:28;45.73;38.73;62.24;;
72686;Laerm;61365;52.162;4.500;2023-04-03T13:23:57;45.74;37.40;58.59;;
72686;Laerm;61365;52.162;4.500;2023-04-03T13:26:28;45.77;37.55;58.55;;
72686;Laerm;61365;52.162;4.500;2023-04-03T13:29:00;45.83;39.09;58.01;;
72686;Laerm;61365;52.162;4.500;2023-04-03T13:31:31;45.79;37.47;59.09;;
72686;Laerm;61365;52.162;4.500;2023-04-03T13:34:03;45.75;39.22;58.16;;
72686;Laerm;61365;52.162;4.500;2023-04-03T13:36:37;45.81;39.51;58.57;;
72686;Laerm;61365;52.162;4.500;2023-04-03T13:39:05;45.79;38.36;58.30;;
72686;Laerm;61365;52.162;4.500;2023-04-03T13:41:37;45.75;38.83;57.67;;
72686;Laerm;61365;52.162;4.500;2023-04-03T13:51:52;45.95;36.22;61.14;;
72686;Laerm;61365;52.162;4.500;2023-04-03T13:54:25;45.69;38.19;58.53;;
72686;Laerm;61365;52.162;4.500;2023-04-03T13:56:56;46.56;36.90;63.55;;
72686;Laerm;61365;52.162;4.500;2023-04-03T13:59:28;45.76;38.43;58.94;;
72686;Laerm;61365;52.162;4.500;2023-04-03T14:02:12;45.92;38.30;59.58;;
72686;Laerm;61365;52.162;4.500;2023-04-03T14:04:56;45.84;38.45;58.40;;
72686;Laerm;61365;52.162;4.500;2023-04-03T14:07:26;45.75;37.62;60.25;;
72686;Laerm;61365;52.162;4.500;2023-04-03T14:09:53;45.79;36.71;58.22;;
72686;Laerm;61365;52.162;4.500;2023-04-03T14:12:30;45.72;38.04;58.28;;
72686;Laerm;61365;52.162;4.500;2023-04-03T14:14:57;45.74;37.41;57.91;;
72686;Laerm;61365;52.162;4.500;2023-04-03T14:17:25;45.75;37.89;58.08;;
72686;Laerm;61365;52.162;4.500;2023-04-03T14:19:54;45.88;38.43;58.53;;
72686;Laerm;61365;52.162;4.500;2023-04-03T14:22:26;45.73;37.92;58.42;;
72686;Laerm;61365;52.162;4.500;2023-04-03T14:24:54;45.79;39.38;58.15;;
72686;Laerm;61365;52.162;4.500;2023-04-03T14:27:25;45.75;36.26;58.58;;
72686;Laerm;61365;52.162;4.500;2023-04-03T14:29:53;45.96;37.59;57.92;;
72686;Laerm;61365;52.162;4.500;2023-04-03T14:32:21;45.67;37.58;58.44;;
72686;Laerm;61365;52.162;4.500;2023-04-03T14:34:50;45.85;36.45;61.39;;
72686;Laerm;61365;52.162;4.500;2023-04-03T14:37:20;45.79;37.15;57.88;;
72686;Laerm;61365;52.162;4.500;2023-04-03T14:39:47;45.72;36.59;60.44;;
72686;Laerm;61365;52.162;4.500;2023-04-03T14:42:18;45.84;37.01;57.92;;
72686;Laerm;61365;52.162;4.500;2023-04-03T14:44:45;45.72;38.41;58.46;;
72686;Laerm;61365;52.162;4.500;2023-04-03T14:47:12;45.87;37.82;58.40;;
72686;Laerm;61365;52.162;4.500;2023-04-03T14:49:39;45.65;37.67;57.30;;
72686;Laerm;61365;52.162;4.500;2023-04-03T14:52:06;45.73;37.44;58.03;;
72686;Laerm;61365;52.162;4.500;2023-04-03T14:54:32;45.77;37.57;60.69;;
72686;Laerm;61365;52.162;4.500;2023-04-03T14:56:59;45.75;39.42;58.66;;
72686;Laerm;61365;52.162;4.500;2023-04-03T14:59:27;45.70;37.91;57.68;;
72686;Laerm;61365;52.162;4.500;2023-04-03T15:01:53;45.84;38.57;57.59;;
72686;Laerm;61365;52.162;4.500;2023-04-03T15:04:20;45.64;37.95;61.01;;
72686;Laerm;61365;52.162;4.500;2023-04-03T15:06:48;45.62;37.27;63.09;;
72686;Laerm;61365;52.162;4.500;2023-04-03T15:09:25;45.90;37.60;58.62;;
72686;Laerm;61365;52.162;4.500;2023-04-03T15:11:54;45.83;38.62;62.46;;
72686;Laerm;61365;52.162;4.500;2023-04-03T15:14:21;45.75;37.98;57.66;;
72686;Laerm;61365;52.162;4.500;2023-04-03T15:16:48;45.85;38.13;62.38;;
72686;Laerm;61365;52.162;4.500;2023-04-03T15:19:14;45.83;39.21;58.98;;
72686;Laerm;61365;52.162;4.500;2023-04-03T15:21:40;45.84;38.09;60.38;;
72686;Laerm;61365;52.162;4.500;2023-04-03T15:24:08;45.89;38.97;58.21;;
72686;Laerm;61365;52.162;4.500;2023-04-03T15:26:34;45.68;38.38;61.96;;
72686;Laerm;61365;52.162;4.500;2023-04-03T15:29:01;45.62;37.70;59.38;;
72686;Laerm;61365;52.162;4.500;2023-04-03T15:31:27;45.87;37.33;60.97;;
72686;Laerm;61365;52.162;4.500;2023-04-03T15:33:53;45.76;37.63;57.93;;
72686;Laerm;61365;52.162;4.500;2023-04-03T15:36:19;45.86;38.02;59.94;;
72686;Laerm;61365;52.162;4.500;2023-04-03T15:38:46;45.73;38.99;59.80;;
72686;Laerm;61365;52.162;4.500;2023-04-03T15:41:12;45.75;37.68;58.29;;
72686;Laerm;61365;52.162;4.500;2023-04-03T15:43:38;45.71;37.91;58.13;;
72686;Laerm;61365;52.162;4.500;2023-04-03T15:46:04;45.83;37.97;57.75;;